Szymon Piatek

Chefscout - Wisla Krakow
17 Jul 2027
Samstag
Verarbeitung

Persönlichkeit

Anpassungsfähigkeit (4) Ehrgeiz (12) Kontroverse (18) Loyalität (18) Druck (18) Professionalität (18) Fairness (6) Temperament (4)

Profil

Trainerstil Demokratisch
Lizenz Kontinentale C
Entschlossenheit 9
Menschenführung 8
Motivation 5
Disziplin 6
Arbeitszufriedenheit
100%
Ermüdung
0%
Rolle Chefscout
Gehalt 24.7K p/W
Vertrag 14.03.2030

Leistung

Verhalten Gut
Trainingseffektivität
40%
Spielerentwicklung
50%
Verletzungsprävention
30%
Taktische Umsetzung
20%

Letzte Ereignisse

Nahm an einer Scouting-Besprechung teil jetzt
Nahm an einer Scouting-Besprechung teil 7T her
Empfahl ein Transferziel 7T her
Empfahl ein Transferziel 7T her
Nahm an einer Scouting-Besprechung teil 14T her
Empfahl ein Transferziel 14T her
Empfahl ein Transferziel 14T her
Empfahl ein Transferziel 21T her

Aktuell beobachtet

188
Spieler Verein Status Fähigkeit Vertrauen Beobachtet Zuletzt beobachtet Letzte Stimme
Ibrahim Sabiu Bendel Insurance Aktiv 74 / 82 40% 1 21.06.2027 -
Davide Bartesaghi AC Milan Aktiv 131 / 140 40% 1 21.06.2027 -
Leonardo Mendicino Bari Aktiv 110 / 127 40% 1 21.06.2027 -
Dylan Lawlor Cardiff City Aktiv 122 / 125 40% 1 14.06.2027 -
Enzo Cardozo Virtus Entella Aktiv 116 / 115 40% 1 14.06.2027 -
Caio Vidal FC Copenhagen Aktiv 128 / 129 63% 1 01.06.2027 Befürworten
Daniel Kyerewaa Reading Aktiv 117 / 118 40% 1 31.05.2027 -
Koki Saito Queens Park Rangers Aktiv 125 / 127 40% 1 31.05.2027 -
Tony Springett Barnet Aktiv 107 / 108 40% 1 31.05.2027 -
Welington Southampton Aktiv 130 / 133 40% 9 30.05.2027 -
Oliver Skipp Leicester City Aktiv 139 / 136 40% 6 30.05.2027 -
Saša Lukić Ipswich Town Aktiv 135 / 143 40% 4 30.05.2027 -
Max Johnston Derby County Aktiv 133 / 123 40% 11 29.05.2027 -
Kenny Tete Fulham Aktiv 140 / 140 40% 8 29.05.2027 -
Reuell Walters Luton Town Aktiv 112 / 126 40% 3 29.05.2027 -
Liam Thompson Mansfield Town Aktiv 110 / 111 40% 1 28.05.2027 -
Liam Bennett Cambridge United Aktiv 107 / 109 40% 1 28.05.2027 -
Ethan Pye Stockport County Aktiv 122 / 123 40% 5 27.05.2027 -
Marc Bola Watford Aktiv 118 / 117 40% 4 27.05.2027 -
Lewis Gibson Preston Aktiv 125 / 125 40% 4 27.05.2027 -
Pelle Mattsson Norwich City Aktiv 125 / 126 40% 3 27.05.2027 -
Terry Devlin Portsmouth Aktiv 116 / 116 40% 2 27.05.2027 -
Cameron Pring Bristol City Aktiv 133 / 133 40% 2 26.05.2027 -
Callum Doyle Wrexham Aktiv 126 / 126 40% 3 26.05.2027 -
Brodie Spencer Oxford United Aktiv 127 / 129 40% 10 24.05.2027 -
Kristoffer Lund Birmingham Aktiv 121 / 124 40% 1 24.05.2027 -
Bobby Thomas Coventry City Aktiv 134 / 136 40% 4 23.05.2027 -
James Morris Leyton Orient Aktiv 117 / 116 40% 5 23.05.2027 -
Edoardo Bove Watford Aktiv 129 / 124 40% 5 22.05.2027 -
Isma Ruiz Córdoba Aktiv 129 / 130 40% 6 22.05.2027 -
Szymon Żurkowski Spezia Aktiv 115 / 115 40% 5 21.05.2027 -
Shea Charles Southampton Aktiv 140 / 139 40% 6 21.05.2027 -
Oumar Camara Vitoria Guimaraes Aktiv 123 / 129 40% 3 21.05.2027 -
Borna Knezović Casarano Aktiv 109 / 114 40% 2 21.05.2027 -
Shaqueel van Persie Feyenoord Aktiv 125 / 131 40% 1 21.05.2027 -
Julio Alonso Huesca Aktiv 122 / 124 40% 3 19.05.2027 -
Bosun Lawal Stoke City Aktiv 122 / 126 40% 6 18.05.2027 -
Harry Clarke Preston Aktiv 133 / 131 40% 6 17.05.2027 -
Max Conway Bolton Wanderers Aktiv 123 / 120 40% 6 17.05.2027 -
Tristan Crama Millwall Aktiv 131 / 119 40% 5 17.05.2027 -
Tom Hamer Lincoln City Aktiv 118 / 106 40% 3 17.05.2027 -
Gustavo Hamer Sheffield United Aktiv 129 / 139 40% 2 17.05.2027 -
Victor Torp Coventry City Aktiv 131 / 123 40% 1 16.05.2027 -
Bali Mumba Huddersfield Town Aktiv 117 / 119 40% 1 16.05.2027 -
Jacques Ekomié Wrexham Aktiv 125 / 129 40% 5 15.05.2027 -
Toby Collyer West Bromwich Albion Aktiv 130 / 131 40% 1 13.05.2027 -
Álex Valle Como Aktiv 145 / 138 40% 6 11.05.2027 -
Nobel Mendy Hull City Aktiv 139 / 133 40% 1 11.05.2027 -
Alfie Doughty Millwall Aktiv 134 / 130 40% 3 10.05.2027 -
Charlie Webster Burton Albion Aktiv 111 / 122 40% 4 10.05.2027 -
Josh Honohan Lincoln City Aktiv 108 / 107 40% 4 09.05.2027 -
Archie Collins Peterborough United Aktiv 113 / 116 40% 2 07.05.2027 -
Ross McCrorie Bristol City Aktiv 133 / 132 40% 7 06.05.2027 -
Ryan Wintle Milton Keynes Dons Aktiv 109 / 120 40% 1 06.05.2027 -
Japhet Tanganga Sheffield United Aktiv 132 / 133 40% 3 05.05.2027 -
Ben Nelson Leicester City Aktiv 128 / 139 40% 3 04.05.2027 -
Max Bird Birmingham Aktiv 138 / 128 40% 11 04.05.2027 -
Stephen Eustáquio Swansea City Aktiv 129 / 142 40% 2 03.05.2027 -
Josh Edwards Charlton Athletic Aktiv 119 / 122 40% 2 01.05.2027 -
Atsuki Ito Bolton Wanderers Aktiv 120 / 125 40% 2 01.05.2027 -
Ramón Terrats Getafe Aktiv 136 / 138 40% 9 30.04.2027 -
Ousmane Diakité West Bromwich Albion Aktiv 120 / 128 40% 2 29.04.2027 -
Idris El Mizouni Leyton Orient Aktiv 118 / 110 40% 3 29.04.2027 -
Callum Brittain Middlesbrough Aktiv 137 / 129 40% 1 29.04.2027 -
Mohamed El Amine Ramdaoui USM Alger Aktiv 101 / 102 40% 2 27.04.2027 -
Andrea Carboni Monza Aktiv 129 / 129 40% 1 27.04.2027 -
Mathis Jangeal Famalicao Aktiv 93 / 110 40% 1 27.04.2027 -
Jimmy Dunne Queens Park Rangers Aktiv 134 / 131 40% 1 23.04.2027 -
Imrân Louza Watford Aktiv 137 / 125 40% 2 22.04.2027 -
Jordan Lotomba Bloemfontein Celtic Aktiv 112 / 133 40% 8 21.04.2027 -
Adam Randell Bristol City Aktiv 123 / 128 40% 4 20.04.2027 -
Michael Rose Salford City Aktiv 102 / 96 40% 1 18.04.2027 -
Ryan Sweeney Mansfield Town Aktiv 105 / 105 40% 1 17.04.2027 -
Yannik Wagner Heidenheim Aktiv 103 / 102 40% 1 15.04.2027 -
Luke Baartman Bidvest Wits Aktiv 93 / 123 40% 1 15.04.2027 -
Rúben Vinagre Legia Aktiv 112 / 106 40% 11 11.04.2027 -
Toti Wolverhampton Aktiv 131 / 130 40% 3 11.04.2027 -
Kane Wilson Milton Keynes Dons Aktiv 117 / 113 40% 1 11.04.2027 -
Aidan Morris Middlesbrough Aktiv 133 / 125 40% 5 10.04.2027 -
George Brown Sheffield Wednesday Aktiv 103 / 107 40% 1 10.04.2027 -
Oliver Fischer Borussia Dortmund Aktiv 89 / 92 40% 1 10.04.2027 -
Milan van Ewijk Coventry City Aktiv 131 / 123 40% 4 05.04.2027 -
Patrik Hellebrand Korona Aktiv 110 / 116 40% 6 30.03.2027 -
Nicola Zalewski Atalanta Aktiv 141 / 143 40% 2 30.03.2027 -
Luis Fernando Santa Clara Aktiv 106 / 106 40% 2 29.03.2027 -
Sule John Ashanti Gold Aktiv 86 / 86 40% 1 29.03.2027 -
Kellen Fisher Norwich City Aktiv 119 / 130 40% 3 27.03.2027 -
Matt Clarke Derby County Aktiv 127 / 123 40% 1 27.03.2027 -
Tom Pearce Chesterfield Aktiv 115 / 111 40% 1 26.03.2027 -
Harry Pickering Blackburn Rovers Aktiv 118 / 125 40% 2 24.03.2027 -
Tariq Lamptey Queens Park Rangers Aktiv 141 / 136 40% 1 24.03.2027 -
Damian Szymański Legia Aktiv 109 / 108 40% 3 20.03.2027 -
Rodrigo Conceição Jagiellonia Aktiv 117 / 113 40% 5 18.03.2027 -
Bernardo Vital Jagiellonia Aktiv 129 / 131 40% 6 18.03.2027 -
Volodymyr Mulyk Kryvbas Aktiv 83 / 85 40% 1 17.03.2027 -
Kostiantyn Kvas Nyva Aktiv 73 / 92 40% 2 16.03.2027 -
Miloš Jovičić Zabbar St. Patrick Aktiv 88 / 92 40% 1 16.03.2027 -
Hlib Polyashenko Bukovyna Aktiv 65 / 75 40% 1 16.03.2027 -
José Córdoba Norwich City Aktiv 116 / 127 40% 2 14.03.2027 -
Víctor Guzmán Sporting CP Aktiv 92 / 98 40% 1 14.03.2027 -
Iwan Morgan Grimsby Town Aktiv 111 / 109 40% 1 14.03.2027 -
Caolan Boyd-Munce Wycombe Wanderers Aktiv 118 / 114 40% 3 11.03.2027 -
Ethan Galbraith Swansea City Aktiv 126 / 130 40% 3 11.03.2027 -
Tomasz Wójtowicz Lechia Aktiv 110 / 115 40% 2 07.03.2027 -
Kellyn Acosta Pogon Aktiv 127 / 119 40% 8 06.03.2027 -
Juan Larios Piast Aktiv 124 / 122 40% 3 03.03.2027 -
Patryk Dziczek Pogon Aktiv 117 / 120 40% 4 03.03.2027 -
Tomasz Walczak MFK Michalovce Aktiv 99 / 101 40% 1 02.03.2027 -
Sunusi Audu New Edubiase United Aktiv 83 / 93 40% 1 02.03.2027 -
Kacper Urbański Gornik Zabrze Aktiv 127 / 126 40% 5 28.02.2027 -
Marcel Pięczek Korona Aktiv 110 / 105 40% 2 26.02.2027 -
Jacob Greaves Ipswich Town Aktiv 136 / 130 40% 4 23.02.2027 -
Lewis O'Brien Wrexham Aktiv 132 / 122 40% 2 21.02.2027 -
Emmanuel Twumasi Piast Aktiv 100 / 104 40% 2 18.02.2027 -
Kamil Piątkowski Legia Aktiv 114 / 118 40% 2 18.02.2027 -
Tyrell Malacia Derby County Aktiv 138 / 143 40% 4 15.02.2027 -
Attila Szalai Pogon Aktiv 124 / 120 40% 1 12.02.2027 -
Teden Mengi Luton Town Aktiv 119 / 129 40% 1 08.02.2027 -
Ben Chrisene Sheffield Wednesday Aktiv 125 / 119 40% 1 08.02.2027 -
Dara O'Shea Ipswich Town Aktiv 142 / 128 40% 3 07.02.2027 -
Roberto Massimo Legia Aktiv 115 / 108 40% 3 26.01.2027 -
Tom Fellows Southampton Aktiv 122 / 136 40% 2 26.01.2027 -
Matěj Ryneš Sparta Prague Aktiv 122 / 129 40% 1 26.01.2027 -
Sergio Lozano Jagiellonia Aktiv 119 / 118 40% 2 02.01.2027 -
Florentino Luís Ipswich Town Aktiv 135 / 137 40% 4 02.01.2027 -
Petar Stanić Ludogorets Aktiv 132 / 125 40% 1 02.01.2027 -
Thulani Billiat Utrecht Verhandlung 136 / 136 61% 1 01.01.2027 Befürworten
Gustav Berggren Lech Aktiv 117 / 121 40% 3 29.12.2026 -
Luke McNally Bristol City Aktiv 136 / 128 40% 1 28.12.2026 -
Zeidane Inoussa Swansea City Aktiv 128 / 130 40% 1 27.12.2026 Mehr Infos nötig
Aidomo Emakhu Oxford United Aktiv 119 / 118 40% 1 27.12.2026 -
Ali Ahmed Norwich City Aktiv 117 / 123 40% 1 27.12.2026 -
Tamar Svetlin Korona Aktiv 112 / 112 40% 3 26.12.2026 -
Pablo Rodríguez Lech Aktiv 127 / 127 40% 1 24.12.2026 -
Jakub Bednarczyk Gornik Leczna Aktiv 114 / 111 40% 2 23.12.2026 -
Brooke Norton-Cuffy Hull City Aktiv 129 / 142 40% 1 22.12.2026 -
Michal Sáček Gornik Zabrze Aktiv 113 / 123 40% 4 21.12.2026 -
Luis Palma Lech Aktiv 117 / 126 40% 1 20.12.2026 -
Relebohile Mofokeng Orlando Pirates Aktiv 114 / 120 40% 2 19.12.2026 -
Łukasz Bejger NK Celje Aktiv 113 / 107 40% 2 18.12.2026 -
Lloyd Jones Charlton Athletic Aktiv 124 / 131 40% 1 18.12.2026 Mehr Infos nötig
Tommy Conway Middlesbrough Aktiv 129 / 137 40% 1 15.12.2026 -
Lamine Bâ Slask Aktiv 119 / 114 40% 2 13.12.2026 -
Ilyas Ansah Hull City Aktiv 128 / 129 40% 1 13.12.2026 -
Camilo Durán Bloemfontein Celtic Aktiv 116 / 106 40% 1 12.12.2026 -
Isaac Price West Bromwich Albion Aktiv 125 / 133 40% 1 12.12.2026 -
Bohdan Viunnyk Lechia Aktiv 102 / 110 40% 1 12.12.2026 -
Oleksandr Zinchenko Lech Aktiv 152 / 146 40% 2 10.12.2026 -
Linus Wahlqvist Pogon Aktiv 116 / 123 40% 2 10.12.2026 -
Jeon Jin-Woo Sheffield Wednesday Aktiv 125 / 136 40% 1 10.12.2026 -
Peter Federico Gornik Zabrze Aktiv 121 / 133 40% 2 06.12.2026 -
Paweł Bochniewicz Gornik Zabrze Aktiv 107 / 108 40% 5 03.12.2026 -
Szabolcs Szoboszlai Haladas Aktiv 140 / 127 40% 3 03.12.2026 -
Jakub Piotrowski Udinese Aktiv 131 / 134 40% 1 02.12.2026 -
Mihael Mlinarić Zaglebie Aktiv 108 / 104 40% 1 02.12.2026 -
Christian Krasnodar Aktiv 130 / 137 40% 2 29.11.2026 -
Josip Ćorluka Zaglebie Aktiv 118 / 118 40% 2 29.11.2026 -
Luka Lučić Zaglebie Aktiv 103 / 95 40% 1 29.11.2026 -
Matej Rodin Lechia Aktiv 112 / 114 40% 1 28.11.2026 -
Juande Rivas Piast Aktiv 113 / 110 40% 3 26.11.2026 -
Furkan Demir Rapid Wien Aktiv 125 / 131 40% 1 26.11.2026 -
Volodymyr Shepeliev Polissia Aktiv 110 / 120 40% 2 24.11.2026 -
Mariusz Malec Slask Aktiv 111 / 100 40% 1 23.11.2026 -
Malthe Højholt Gornik Zabrze Aktiv 113 / 109 40% 1 21.11.2026 -
Robert Gumny Lech Aktiv 111 / 127 40% 2 20.11.2026 -
Joel Andersson Ludogorets Aktiv 126 / 128 40% 1 18.11.2026 -
Aaron Connolly Ruch Aktiv 115 / 127 40% 1 13.11.2026 -
Álvaro Carreras Real Madrid Aktiv 156 / 160 40% 1 12.11.2026 -
Mateusz Bogusz Houston Dynamo Aktiv 127 / 124 40% 1 11.11.2026 -
Tshepang Moremi Orlando Pirates Aktiv 113 / 104 40% 1 11.11.2026 -
Antoni Kozubal Lech Aktiv 114 / 106 40% 1 10.11.2026 -
Anders Klynge Jagiellonia Aktiv 126 / 111 40% 1 07.11.2026 -
Iván Angulo Orlando City Aktiv 118 / 126 40% 1 06.11.2026 -
Patrik Wålemark Lech Aktiv 121 / 124 40% 1 06.11.2026 -
Szymon Szymański Ruch Aktiv 109 / 104 40% 2 05.11.2026 -
David Douděra FC Cincinnati Aktiv 141 / 146 40% 1 05.11.2026 -
Thulani Phiri Platinum Stars Aktiv 110 / 100 40% 1 04.11.2026 -
Khuliso Mudau Mamelodi Sundowns Aktiv 123 / 114 40% 1 03.11.2026 -
Nectar Triantis Minnesota United FC Aktiv 132 / 141 40% 1 09.10.2026 -
Alexis Steimbach Gimnasia La Plata Aktiv 124 / 116 40% 1 09.10.2026 -
Ho-yeon Jung Minnesota United FC Aktiv 133 / 112 40% 1 09.10.2026 -
Evander FC Cincinnati Aktiv 142 / 136 40% 1 07.10.2026 -
Loïc Williams Colorado Rapids Aktiv 128 / 129 40% 1 07.10.2026 -
Juan Manuel Sanabria Real Salt Lake Aktiv 136 / 130 40% 1 10.09.2026 -
Diadié Samassékou Houston Dynamo Aktiv 113 / 127 40% 1 07.09.2026 -
Rob Holding Colorado Rapids Aktiv 116 / 108 40% 1 07.09.2026 -
Dawid Tkacz Gornik Leczna Aktiv 94 / 109 69% 1 10.08.2026 Befürworten
Brahim Díaz Real Madrid Aktiv 146 / 157 40% 1 01.08.2026 -